Southgate, MI (48195)

21:47 EDT le 31 octobre 2014 (GMT -0400)
Castle and Burns St. | Change Station
CLOSE
Current Station
Stations météorologiques personnelles
Location: Southgate, MI
Altitude: 580 ft
Stations météo à proximité

Alt. 580 ft 42.21 °N, 83.19 °W | Updated 2 minutes ago

Pluie
Pluie
36.5 ° F
Paraît 28 ° F
N
13.0
Vent Variable Vent de NO
Gusts 13.0 mph

Aujourd'hui
Haut(e) -- | Bas -- ° F
--% Risque de précip.
Hier
Haut(e) -- | Bas -- ° F
Precip. -- pouce
8:04 AM 6:27 PM
Premier quartier, 61% visible
Pression 30.06 pouce
Visibilité 6.0 Miles terrestres
Nuages Couvert 2000 ft
Refroidissement éolien 28 ° F
Point de rosée 34 ° F
Humidité 92%
Précipitations 0.27 pouce
Profondeur de la couche neigeuse Non disponible.
UV 0.0 sur 12
Pollen .10 sur 12
Qualité de l'air Non disponible.
Flu Activity Non disponible.
METAR KDTW 010053Z 34017G23KT 6SM -SN BR OVC020 02/00 A3004 RMK AO2 PK WND 34027/0023 RAB42E51 SLP178 P0004 T00220000

More Conditions Fewer Conditions

Pression 30.06 pouce
Visibilité 6.0 Miles terrestres
Nuages Couvert 2000 ft
Refroidissement éolien 28 ° F
Point de rosée 34 ° F
Humidité 92%
Précipitations 0.27 pouce
Profondeur de la couche neigeuse Non disponible.
UV 0.0 sur 12
Pollen .10 sur 12
Qualité de l'air Non disponible.
Flu Activity Non disponible.
METAR KDTW 010053Z 34017G23KT 6SM -SN BR OVC020 02/00 A3004 RMK AO2 PK WND 34027/0023 RAB42E51 SLP178 P0004 T00220000

More Conditions Fewer Conditions

10-Day Weather Forecast

Almanac

Astronomie

Oct. 31, 2014 Lever Coucher
Temps réel
Crépuscule civil
Crépuscule nautique
Crépuscule astronomique
Lune
Durée de lumière visible
Longueur du jour
Tomorrow will be .
, % of the Moon is Illuminated

Extrêmes aujourd'hui

State Highs State Lows

Community

WunderPhotos

Upload Photos

1,766,810 Photos téléchargées !

WunderBlogs® & News

Nearby

Qualité de l'air

  Qualité de l'air Indice de la qualité de l'air Polluant
Not available.

Épaisseur de neige

Station Depth Altitude

Activité sismique

Ville Distance Mag. Time & Date
Minimum magnitude displayed is 2.5.

Températures des eaux côtières

Lieu Température

Stations météo à proximité